Accueil
METAR-TAF:

METAR-TAF

Aéroports :

Aéroport de Friedrichshafen

Friedrichshafen, Allemagne

latitude: 47-40N, longitude: 009-31E, altitude: 416 m

Observation

Le bulletin a été fait il y a 22 minutes, à 13:50 UTC
Vent 7 kt de sud-ouest, variant entre sud et ouest
Température 25°C
Humidité 54%
Pression 1024 hPa
Visibilité 10 km ou plus
Quelques nuages à une hauteur de 4700 ft

METAR: EDNY 191350Z 23007KT 190V260 9999 FEW047 25/15 Q1024

Heure: 16:12 (14:12 UTC)

Prévision

Le bulletin a été fait il y a 3 heures et 12 minutes, à 11:00 UTC
Prévision valable du 19 à 12 UTC au 20 à 12 UTC
Vent 5 kt de ouest/sud-ouest
Visibilité 10 km ou plus
Nuages épars à une hauteur de 5000 ft
Evoluant progressivement
du 19 à 16 UTC au 19 à 18 UTC
Vent 5 kt de nord-est

TAF: EDNY 191100Z 1912/2012 25005KT 9999 SCT050 BECMG 1916/1918 04005KT

Observations et prévisions météorologiques de plus de 4000 aéroports (messages METAR et TAF).

Les stations disponibles sont représentées par des disques jaunes et rouges sur la carte.

Passer la souris dessus pour voir le nom de la station.

Cliquer dessus pour voir les observations et prévisions météorologiques.

Pour changer de carte: cliquez sur les boutons verts avec une croix noire pour zoomer, sur le bouton vert avec un tiret pour effectuer un zoom arrière, ou sur les flèches vertes pour les cartes adjacentes.


METAR-TAF: